Devils Tower Natl Monument, Wyoming
Current Conditions -  °F | °C
As of 12:53 AM on Monday 26 Jan 2015 (Local Time) from KGCC Reporting Station
Clear Clear  
Wind Chill: 37°   Ceiling: Unl
Heat Index: 43°   Visibility: 10mi
Dew Point: 29°   Wind: 12mph
Humidity: 58%   Direction: 260°W
Pressure: 30.09"   Gusts: NA
Location:  44.57°N, 104.82°W
Report Text: KGCC 260753Z AUTO 26010KT 10SM CLR 06/M02 A3009 RMK AO2 SLP185 T00611017 TSNO $
Loading
Personal Weather Stations






























Interactive Weather Map New forecast layout! Learn more

10-Day Weather Forecast

Advertisements
Track Severe Weather on mobile